Jefferson, Wisconsin
Current Conditions -  °F | °C
As of 4:15 AM on Tuesday 27 Jan 2015 (Local Time) from KRYV Reporting Station
Haze Haze  
Wind Chill: 18°   Ceiling: 1200
Heat Index: 24°   Visibility: 5mi
Dew Point: 24°   Wind: 5mph
Humidity: 99%   Direction: 20°NNE
Pressure: 30.01"   Gusts: NA
Location:  43°N, 88.81°W
Report Text: KRYV 271015Z AUTO 02004KT 5SM BR BKN012 BKN023 OVC042 M04/M05 A3001 RMK AO2 T10451047
Loading
Personal Weather Stations






























Interactive Weather Map New forecast layout! Learn more

10-Day Weather Forecast

Advertisements
Track Severe Weather on mobile